createdAt,value
2018-04-26T00:01:24.985Z,13.70
2018-04-26T00:03:54.187Z,13.70
2018-04-26T00:06:24.246Z,13.70
2018-04-26T00:08:53.862Z,13.60
2018-04-26T00:11:23.055Z,13.70
2018-04-26T00:13:52.304Z,13.70
2018-04-26T00:16:22.314Z,13.60
2018-04-26T00:18:52.295Z,13.60
2018-04-26T00:21:22.388Z,13.60
2018-04-26T00:23:51.687Z,13.60
2018-04-26T00:26:21.052Z,13.60
2018-04-26T00:28:51.078Z,13.60
2018-04-26T00:31:21.044Z,13.50
2018-04-26T00:33:50.253Z,13.50
2018-04-26T00:36:20.352Z,13.50
2018-04-26T00:38:49.528Z,13.50
2018-04-26T00:41:18.825Z,13.50
2018-04-26T00:43:48.070Z,13.40
2018-04-26T00:46:17.457Z,13.30
2018-04-26T00:48:52.362Z,13.30
2018-04-26T00:51:33.262Z,13.20
2018-04-26T00:54:02.549Z,13.10
2018-04-26T00:56:31.784Z,12.90
2018-04-26T00:59:01.106Z,12.70
2018-04-26T01:01:31.146Z,12.40
2018-04-26T01:04:07.691Z,12.20
2018-04-26T01:06:37.745Z,12.10
2018-04-26T01:09:07.095Z,12.10
2018-04-26T01:11:37.163Z,12.00
2018-04-26T01:14:06.452Z,12.00
2018-04-26T01:16:35.852Z,12.00
2018-04-26T01:19:05.203Z,12.00
2018-04-26T01:21:38.488Z,12.10
2018-04-26T01:24:07.876Z,12.10
2018-04-26T01:26:37.202Z,12.20
2018-04-26T01:29:06.607Z,12.20
2018-04-26T01:31:36.626Z,12.20
2018-04-26T01:34:07.165Z,12.10
2018-04-26T01:36:48.314Z,12.20
2018-04-26T01:39:21.643Z,12.20
2018-04-26T01:41:54.798Z,12.20
2018-04-26T01:44:24.048Z,12.20
2018-04-26T01:46:53.345Z,12.20
2018-04-26T01:49:22.644Z,12.30
2018-04-26T01:52:17.047Z,12.30
2018-04-26T01:54:46.261Z,12.30
2018-04-26T01:57:15.406Z,12.30
2018-04-26T01:59:44.597Z,12.30
2018-04-26T02:02:13.766Z,12.30
2018-04-26T02:04:43.031Z,12.30
2018-04-26T02:07:12.308Z,12.30
2018-04-26T02:09:41.600Z,12.30
2018-04-26T02:12:10.873Z,12.40
2018-04-26T02:14:40.239Z,12.40
2018-04-26T02:17:10.460Z,12.30
2018-04-26T02:19:39.984Z,12.30
2018-04-26T02:22:10.177Z,12.30
2018-04-26T02:24:39.426Z,12.30
2018-04-26T02:27:08.647Z,12.30
2018-04-26T02:29:37.889Z,12.30
2018-04-26T02:32:10.109Z,12.20
2018-04-26T02:34:40.143Z,12.10
2018-04-26T02:37:09.292Z,12.10
2018-04-26T02:39:38.521Z,12.00
2018-04-26T02:42:08.244Z,12.10
2018-04-26T02:44:38.425Z,12.10
2018-04-26T02:47:07.487Z,12.10
2018-04-26T02:49:48.960Z,12.10
2018-04-26T02:52:18.410Z,12.10
2018-04-26T02:54:47.636Z,12.10
2018-04-26T02:57:17.008Z,12.10
2018-04-26T02:59:46.511Z,12.00
2018-04-26T03:02:15.684Z,12.00
2018-04-26T03:04:44.930Z,12.00
2018-04-26T03:07:14.217Z,12.00
2018-04-26T03:09:44.472Z,12.00
2018-04-26T03:12:13.735Z,12.10
2018-04-26T03:14:42.972Z,12.00
2018-04-26T03:17:12.258Z,12.00
2018-04-26T03:19:41.533Z,12.00
2018-04-26T03:22:10.788Z,12.00
2018-04-26T03:24:40.059Z,12.00
2018-04-26T03:27:10.143Z,12.00
2018-04-26T03:29:39.531Z,11.90
2018-04-26T03:32:08.747Z,11.90
2018-04-26T03:34:38.065Z,11.90
2018-04-26T03:37:07.252Z,11.90
2018-04-26T03:39:36.521Z,11.90
2018-04-26T03:42:05.767Z,11.90
2018-04-26T03:44:35.023Z,12.00
2018-04-26T03:47:04.224Z,12.00
2018-04-26T03:49:33.595Z,11.90
2018-04-26T03:52:02.786Z,11.90
2018-04-26T03:54:32.804Z,11.80
2018-04-26T03:57:02.013Z,11.80
2018-04-26T03:59:31.247Z,11.80
2018-04-26T04:02:12.424Z,11.80
2018-04-26T04:05:03.274Z,11.80
2018-04-26T04:07:33.274Z,11.70
2018-04-26T04:10:02.578Z,11.70
2018-04-26T04:12:33.711Z,11.70
2018-04-26T04:15:02.975Z,11.70
2018-04-26T04:17:32.269Z,11.70
2018-04-26T04:20:01.621Z,11.60
2018-04-26T04:22:30.908Z,11.60
2018-04-26T04:25:00.997Z,11.60
2018-04-26T04:27:30.401Z,11.60
2018-04-26T04:29:59.652Z,11.60
2018-04-26T04:32:29.752Z,11.60
2018-04-26T04:35:00.202Z,11.50
2018-04-26T04:37:29.642Z,11.50
2018-04-26T04:39:58.931Z,11.50
2018-04-26T04:42:28.207Z,11.50
2018-04-26T04:44:57.621Z,11.50
2018-04-26T04:47:26.988Z,11.50
2018-04-26T04:49:56.251Z,11.50
2018-04-26T04:52:25.638Z,11.50
2018-04-26T04:55:09.805Z,11.50
2018-04-26T04:57:39.022Z,11.50
2018-04-26T05:00:08.240Z,11.60
2018-04-26T05:02:38.309Z,11.60
2018-04-26T05:05:07.539Z,11.60
2018-04-26T05:07:36.721Z,11.60
2018-04-26T05:10:05.973Z,11.60
2018-04-26T05:12:36.027Z,11.60
2018-04-26T05:15:05.451Z,11.50
2018-04-26T05:17:34.785Z,11.50
2018-04-26T05:20:04.054Z,11.50
2018-04-26T05:22:33.365Z,11.60
2018-04-26T05:25:02.732Z,11.70
2018-04-26T05:27:32.796Z,11.80
2018-04-26T05:30:02.163Z,11.80
2018-04-26T05:32:31.317Z,11.80
2018-04-26T05:35:01.491Z,11.80
2018-04-26T05:37:30.846Z,11.80
2018-04-26T05:40:00.911Z,11.70
2018-04-26T05:42:30.128Z,11.70
2018-04-26T05:45:00.160Z,11.60
2018-04-26T05:47:30.215Z,11.80
2018-04-26T05:49:59.445Z,11.80
2018-04-26T05:52:29.181Z,12.00
2018-04-26T05:54:58.561Z,12.30
2018-04-26T05:57:27.786Z,12.60
2018-04-26T05:59:56.943Z,12.80
2018-04-26T06:02:26.253Z,12.90
2018-04-26T06:04:55.654Z,12.90
2018-04-26T06:07:24.990Z,12.70
2018-04-26T06:09:54.529Z,12.60
2018-04-26T06:12:24.478Z,12.70
2018-04-26T06:14:53.877Z,12.70
2018-04-26T06:17:23.081Z,12.70
2018-04-26T06:19:52.395Z,12.80
2018-04-26T06:22:25.057Z,13.00
2018-04-26T06:24:54.305Z,13.20
2018-04-26T06:27:23.540Z,13.40
2018-04-26T06:29:52.696Z,13.60
2018-04-26T06:32:22.708Z,13.60
2018-04-26T06:34:51.948Z,13.60
2018-04-26T06:37:21.165Z,13.70
2018-04-26T06:39:50.379Z,13.90
2018-04-26T06:42:19.677Z,13.90
2018-04-26T06:44:48.871Z,14.00
2018-04-26T06:47:18.053Z,13.90
2018-04-26T06:49:47.270Z,13.70
2018-04-26T06:52:16.647Z,13.60
2018-04-26T06:54:46.060Z,13.40
2018-04-26T06:57:15.239Z,13.30
2018-04-26T06:59:44.769Z,13.20
2018-04-26T07:02:13.968Z,13.00
2018-04-26T07:04:43.267Z,12.90
2018-04-26T07:07:12.481Z,13.00
2018-04-26T07:09:41.950Z,13.20
2018-04-26T07:12:11.163Z,13.50
2018-04-26T07:14:41.120Z,14.00
2018-04-26T07:17:10.385Z,14.00
2018-04-26T07:19:39.604Z,14.40
2018-04-26T07:22:08.789Z,14.70
2018-04-26T07:24:38.893Z,14.90
2018-04-26T07:27:08.205Z,14.90
2018-04-26T07:29:37.493Z,14.90
2018-04-26T07:32:06.688Z,15.00
2018-04-26T07:34:35.936Z,15.20
2018-04-26T07:37:05.293Z,15.40
2018-04-26T07:39:34.520Z,15.60
2018-04-26T07:42:03.681Z,15.70
2018-04-26T07:44:32.849Z,15.60
2018-04-26T07:47:02.288Z,15.60
2018-04-26T07:49:31.472Z,15.70
2018-04-26T07:52:00.886Z,15.70
2018-04-26T07:54:30.041Z,15.50
2018-04-26T07:56:59.281Z,15.30
2018-04-26T07:59:28.580Z,14.90
2018-04-26T08:01:57.814Z,14.60
2018-04-26T08:04:27.000Z,14.50
2018-04-26T08:06:56.184Z,14.60
2018-04-26T08:09:25.412Z,14.80
2018-04-26T08:11:55.106Z,15.10
2018-04-26T08:14:25.169Z,15.50
2018-04-26T08:16:55.108Z,15.70
2018-04-26T08:19:24.524Z,15.70
2018-04-26T08:21:53.704Z,15.60
2018-04-26T08:24:24.048Z,15.60
2018-04-26T08:26:53.350Z,15.70
2018-04-26T08:29:22.646Z,15.60
2018-04-26T08:31:51.854Z,15.50
2018-04-26T08:34:21.022Z,15.50
2018-04-26T08:36:50.489Z,15.50
2018-04-26T08:39:19.653Z,15.60
2018-04-26T08:41:48.861Z,15.60
2018-04-26T08:44:18.060Z,15.60
2018-04-26T08:46:47.443Z,15.30
2018-04-26T08:49:16.638Z,15.00
2018-04-26T08:51:45.824Z,15.00
2018-04-26T08:54:15.135Z,15.00
2018-04-26T08:56:44.433Z,15.00
2018-04-26T08:59:13.734Z,14.90
2018-04-26T09:01:42.887Z,15.10
2018-04-26T09:04:12.832Z,15.70
2018-04-26T09:06:42.093Z,15.70
2018-04-26T09:09:11.320Z,16.00
2018-04-26T09:11:40.669Z,15.90
2018-04-26T09:14:09.892Z,15.70
2018-04-26T09:16:40.346Z,15.50
2018-04-26T09:19:09.667Z,15.50
2018-04-26T09:21:38.973Z,15.50
2018-04-26T09:24:08.229Z,15.50
2018-04-26T09:26:37.593Z,15.50
2018-04-26T09:29:06.770Z,15.60
2018-04-26T09:31:36.004Z,15.40
2018-04-26T09:34:05.375Z,15.20
2018-04-26T09:36:34.571Z,14.80
2018-04-26T09:39:03.778Z,13.40
2018-04-26T09:41:34.299Z,12.10
2018-04-26T09:44:03.473Z,11.20
2018-04-26T09:46:32.794Z,10.80
2018-04-26T09:49:02.089Z,10.70
2018-04-26T09:51:31.604Z,10.60
2018-04-26T09:54:00.780Z,10.60
2018-04-26T09:56:29.964Z,10.50
2018-04-26T09:58:59.187Z,10.20
2018-04-26T10:01:28.365Z,10.10
2018-04-26T10:04:03.282Z,10.10
2018-04-26T10:06:33.292Z,10.40
2018-04-26T10:09:02.482Z,10.40
2018-04-26T10:11:32.509Z,10.50
2018-04-26T10:14:01.721Z,10.40
2018-04-26T10:16:30.948Z,10.50
2018-04-26T10:19:00.244Z,10.80
2018-04-26T10:21:29.646Z,11.20
2018-04-26T10:23:58.822Z,11.60
2018-04-26T10:26:28.502Z,12.00
2018-04-26T10:28:57.664Z,12.30
2018-04-26T10:31:26.947Z,12.40
2018-04-26T10:33:56.247Z,12.60
2018-04-26T10:36:25.427Z,13.00
2018-04-26T10:38:54.598Z,13.50
2018-04-26T10:41:24.047Z,14.00
2018-04-26T10:43:53.338Z,14.40
2018-04-26T10:46:22.643Z,15.00
2018-04-26T10:48:51.841Z,15.60
2018-04-26T10:51:21.048Z,16.20
2018-04-26T10:53:50.342Z,16.70
2018-04-26T10:56:19.529Z,17.20
2018-04-26T10:58:48.943Z,17.60
2018-04-26T11:01:18.144Z,17.80
2018-04-26T11:03:47.368Z,17.90
2018-04-26T11:06:16.571Z,17.80
2018-04-26T11:08:45.840Z,17.80
2018-04-26T11:11:15.038Z,17.90
2018-04-26T11:13:44.188Z,17.70
2018-04-26T11:16:13.358Z,17.50
2018-04-26T11:18:42.471Z,17.50
2018-04-26T11:21:11.780Z,17.10
2018-04-26T11:23:41.739Z,16.30
2018-04-26T11:26:10.941Z,16.30
2018-04-26T11:28:40.189Z,15.80
2018-04-26T11:31:10.162Z,15.60
2018-04-26T11:33:39.296Z,15.50
2018-04-26T11:36:09.325Z,15.70
2018-04-26T11:38:38.523Z,15.70
2018-04-26T11:41:07.838Z,15.90
2018-04-26T11:43:37.280Z,16.20
2018-04-26T11:46:07.419Z,16.80
2018-04-26T11:48:36.569Z,16.90
2018-04-26T11:51:05.896Z,17.00
2018-04-26T11:53:35.981Z,17.00
2018-04-26T11:56:05.278Z,17.00
2018-04-26T11:58:34.665Z,16.80
2018-04-26T12:01:08.071Z,16.40
2018-04-26T12:03:37.400Z,16.30
2018-04-26T12:06:06.694Z,16.00
2018-04-26T12:08:35.976Z,15.40
2018-04-26T12:11:05.212Z,14.90
2018-04-26T12:13:34.467Z,14.50
2018-04-26T12:16:03.737Z,14.30
2018-04-26T12:18:33.049Z,14.50
2018-04-26T12:21:03.061Z,15.10
2018-04-26T12:23:32.278Z,15.10
2018-04-26T12:26:01.576Z,15.70
2018-04-26T12:28:31.001Z,16.20
2018-04-26T12:31:00.281Z,16.60
2018-04-26T12:33:29.646Z,16.80
2018-04-26T12:35:58.887Z,16.90
2018-04-26T12:38:28.130Z,17.00
2018-04-26T12:40:57.428Z,16.90
2018-04-26T12:43:26.685Z,16.60
2018-04-26T12:45:56.043Z,16.40
2018-04-26T12:48:25.381Z,16.20
2018-04-26T12:50:54.831Z,16.30
2018-04-26T12:53:24.246Z,16.30
2018-04-26T12:55:53.557Z,16.50
2018-04-26T12:58:23.608Z,17.30
2018-04-26T13:00:53.868Z,17.90
2018-04-26T13:03:23.064Z,17.80
2018-04-26T13:05:52.367Z,18.40
2018-04-26T13:08:21.627Z,18.40
2018-04-26T13:10:51.789Z,18.40
2018-04-26T13:13:21.908Z,18.40
2018-04-26T13:15:51.084Z,18.50
2018-04-26T13:18:20.307Z,18.50
2018-04-26T13:20:49.605Z,18.30
2018-04-26T13:23:18.921Z,17.90
2018-04-26T13:25:48.139Z,17.90
2018-04-26T13:28:18.112Z,18.10
2018-04-26T13:30:47.257Z,18.10
2018-04-26T13:33:20.504Z,18.20
2018-04-26T13:35:49.806Z,18.30
2018-04-26T13:38:20.011Z,18.40
2018-04-26T13:40:49.185Z,18.30
2018-04-26T13:43:18.946Z,18.50
2018-04-26T13:45:48.131Z,18.70
2018-04-26T13:48:19.078Z,19.10
2018-04-26T13:50:48.255Z,19.10
2018-04-26T13:53:17.477Z,19.10
2018-04-26T13:55:46.631Z,19.10
2018-04-26T13:58:15.910Z,19.20
2018-04-26T14:00:46.048Z,19.10
2018-04-26T14:03:15.248Z,19.10
2018-04-26T14:05:44.479Z,18.80
2018-04-26T14:08:13.771Z,18.60
2018-04-26T14:10:42.973Z,18.40
2018-04-26T14:13:12.157Z,18.40
2018-04-26T14:15:41.481Z,18.30
2018-04-26T14:18:11.218Z,18.30
2018-04-26T14:20:40.529Z,18.20
2018-04-26T14:23:09.899Z,18.20
2018-04-26T14:25:38.993Z,18.00
2018-04-26T14:28:08.197Z,18.00
2018-04-26T14:30:37.418Z,18.10
2018-04-26T14:33:11.685Z,18.20
2018-04-26T14:35:40.995Z,18.20
2018-04-26T14:38:10.221Z,18.20
2018-04-26T14:40:39.539Z,18.30
2018-04-26T14:43:08.756Z,18.40
2018-04-26T14:45:38.083Z,18.40
2018-04-26T14:48:07.934Z,18.30
2018-04-26T14:50:37.120Z,18.20
2018-04-26T14:53:06.484Z,18.10
2018-04-26T14:55:36.728Z,17.50
2018-04-26T14:58:06.031Z,17.50
2018-04-26T15:00:35.260Z,17.30
2018-04-26T15:03:04.516Z,17.20
2018-04-26T15:05:33.829Z,17.20
2018-04-26T15:08:03.235Z,17.00
2018-04-26T15:10:32.467Z,17.00
2018-04-26T15:13:01.624Z,17.00
2018-04-26T15:15:30.859Z,17.20
2018-04-26T15:18:00.052Z,17.30
2018-04-26T15:20:29.209Z,17.20
2018-04-26T15:22:58.412Z,17.20
2018-04-26T15:25:27.662Z,17.40
2018-04-26T15:27:59.885Z,17.50
2018-04-26T15:30:29.054Z,17.50
2018-04-26T15:32:58.273Z,17.80
2018-04-26T15:35:27.481Z,17.90
2018-04-26T15:37:56.669Z,18.10
2018-04-26T15:40:25.988Z,18.10
2018-04-26T15:42:55.200Z,18.30
2018-04-26T15:45:24.401Z,18.30
2018-04-26T15:47:53.721Z,18.40
2018-04-26T15:50:47.748Z,18.40
2018-04-26T15:53:28.936Z,18.50
2018-04-26T15:56:09.884Z,18.70
2018-04-26T15:59:03.770Z,18.80
2018-04-26T16:04:58.177Z,18.60
2018-04-26T16:07:54.621Z,18.40
2018-04-26T16:10:41.363Z,18.10
2018-04-26T16:13:24.832Z,17.90
2018-04-26T16:16:12.464Z,17.90
2018-04-26T16:18:53.457Z,17.90
2018-04-26T16:21:34.999Z,17.90
2018-04-26T16:24:21.769Z,17.70
2018-04-26T16:27:11.472Z,16.80
2018-04-26T16:29:52.450Z,16.80
2018-04-26T16:32:38.197Z,16.30
2018-04-26T16:35:21.407Z,16.10
2018-04-26T16:38:09.069Z,16.00
2018-04-26T16:40:38.256Z,15.90
2018-04-26T16:43:07.498Z,15.90
2018-04-26T16:45:36.968Z,15.90
2018-04-26T16:48:06.756Z,15.90
2018-04-26T16:50:36.719Z,15.70
2018-04-26T16:53:06.407Z,15.60
2018-04-26T16:55:35.803Z,15.40
2018-04-26T16:58:05.112Z,15.30
2018-04-26T17:00:37.007Z,15.20
2018-04-26T17:03:21.990Z,15.20
2018-04-26T17:05:53.153Z,15.20
2018-04-26T17:08:24.711Z,15.30
2018-04-26T17:10:54.849Z,15.30
2018-04-26T17:13:29.352Z,15.50
2018-04-26T17:16:02.259Z,16.80
2018-04-26T17:18:31.654Z,16.80
2018-04-26T17:21:01.130Z,17.00
2018-04-26T17:23:30.740Z,16.70
2018-04-26T17:26:00.487Z,16.30
2018-04-26T17:28:29.626Z,16.30
2018-04-26T17:31:00.518Z,17.00
2018-04-26T17:33:29.848Z,17.60
2018-04-26T17:35:59.246Z,18.40
2018-04-26T17:38:28.829Z,18.70
2018-04-26T17:40:58.144Z,19.00
2018-04-26T17:43:27.363Z,19.10
2018-04-26T17:45:57.357Z,19.10
2018-04-26T17:48:26.862Z,19.10
2018-04-26T17:50:56.982Z,19.10
2018-04-26T17:53:26.273Z,19.10
2018-04-26T17:55:55.517Z,19.20
2018-04-26T17:58:25.595Z,18.80
2018-04-26T18:00:54.910Z,18.80
2018-04-26T18:03:24.926Z,17.50
2018-04-26T18:06:01.373Z,16.70
2018-04-26T18:08:30.568Z,16.70
2018-04-26T18:11:00.637Z,15.90
2018-04-26T18:13:29.840Z,15.30
2018-04-26T18:15:59.187Z,14.90
2018-04-26T18:18:28.460Z,14.70
2018-04-26T18:20:57.649Z,14.50
2018-04-26T18:23:27.701Z,13.90
2018-04-26T18:25:57.849Z,13.90
2018-04-26T18:28:27.217Z,13.60
2018-04-26T18:30:56.422Z,13.30
2018-04-26T18:33:25.723Z,13.10
2018-04-26T18:35:55.004Z,13.00
2018-04-26T18:38:25.015Z,12.50
2018-04-26T18:40:54.590Z,12.50
2018-04-26T18:43:24.711Z,12.30
2018-04-26T18:45:54.115Z,12.30
2018-04-26T18:48:24.056Z,12.10
2018-04-26T18:50:53.220Z,12.00
2018-04-26T18:53:23.179Z,11.90
2018-04-26T18:55:52.362Z,11.90
2018-04-26T18:58:21.641Z,11.90
2018-04-26T19:00:50.798Z,11.80
2018-04-26T19:03:20.755Z,11.60
2018-04-26T19:05:50.101Z,11.50
2018-04-26T19:08:19.388Z,11.40
2018-04-26T19:10:48.553Z,11.40
2018-04-26T19:13:17.694Z,11.30
2018-04-26T19:15:46.867Z,11.20
2018-04-26T19:18:20.581Z,11.10
2018-04-26T19:20:49.741Z,11.10
2018-04-26T19:23:18.903Z,11.00
2018-04-26T19:25:48.160Z,10.90
2018-04-26T19:28:17.336Z,10.80
2018-04-26T19:30:50.911Z,10.70
2018-04-26T19:33:21.314Z,10.70
2018-04-26T19:35:50.615Z,10.60
2018-04-26T19:38:19.792Z,10.60
2018-04-26T19:40:48.989Z,10.50
2018-04-26T19:43:18.196Z,10.50
2018-04-26T19:45:47.428Z,10.40
2018-04-26T19:48:20.491Z,10.30
2018-04-26T19:50:49.929Z,10.30
2018-04-26T19:53:19.145Z,10.20
2018-04-26T19:55:48.449Z,10.10
2018-04-26T19:58:18.512Z,9.90
2018-04-26T20:00:47.794Z,9.90
2018-04-26T20:03:20.874Z,9.70
2018-04-26T20:05:50.107Z,9.70
2018-04-26T20:08:19.349Z,9.60
2018-04-26T20:10:49.405Z,9.50
2018-04-26T20:13:18.554Z,9.50
2018-04-26T20:15:47.731Z,9.50
2018-04-26T20:18:16.909Z,9.40
2018-04-26T20:20:46.247Z,9.30
2018-04-26T20:23:15.411Z,9.20
2018-04-26T20:25:44.815Z,9.10
2018-04-26T20:28:14.112Z,9.00
2018-04-26T20:30:43.397Z,8.90
2018-04-26T20:33:12.707Z,8.80
2018-04-26T20:35:41.937Z,8.70
2018-04-26T20:38:14.823Z,8.60
2018-04-26T20:40:44.011Z,8.50
2018-04-26T20:43:16.370Z,8.40
2018-04-26T20:45:45.568Z,8.40
2018-04-26T20:48:32.530Z,8.30
2018-04-26T20:51:02.512Z,8.10
2018-04-26T20:53:31.687Z,8.10
2018-04-26T20:56:00.695Z,8.00
2018-04-26T20:58:29.826Z,7.90
2018-04-26T21:00:59.814Z,7.80
2018-04-26T21:03:29.041Z,7.80
2018-04-26T21:05:58.281Z,7.70
2018-04-26T21:08:27.520Z,7.80
2018-04-26T21:10:56.705Z,7.70
2018-04-26T21:13:25.949Z,7.70
2018-04-26T21:15:55.089Z,7.70
2018-04-26T21:18:24.243Z,7.60
2018-04-26T21:20:54.244Z,7.50
2018-04-26T21:23:24.223Z,7.50
2018-04-26T21:25:53.452Z,7.40
2018-04-26T21:28:23.464Z,7.30
2018-04-26T21:30:52.637Z,7.30
2018-04-26T21:33:21.815Z,7.30
2018-04-26T21:35:51.246Z,7.20
2018-04-26T21:38:20.438Z,7.20
2018-04-26T21:40:49.717Z,7.20
2018-04-26T21:43:18.941Z,7.10
2018-04-26T21:45:48.108Z,7.00
2018-04-26T21:48:20.267Z,6.80
2018-04-26T21:50:55.055Z,6.80
2018-04-26T21:53:30.575Z,6.70
2018-04-26T21:56:05.442Z,6.70
2018-04-26T21:58:40.922Z,6.60
2018-04-26T22:01:15.831Z,6.60
2018-04-26T22:03:46.926Z,6.60
2018-04-26T22:06:16.157Z,6.60
2018-04-26T22:08:45.409Z,6.60
2018-04-26T22:11:14.659Z,6.50
2018-04-26T22:13:43.837Z,6.50
2018-04-26T22:16:13.915Z,6.50
2018-04-26T22:18:43.102Z,6.40
2018-04-26T22:21:13.013Z,6.10
2018-04-26T22:23:42.206Z,6.10
2018-04-26T22:26:12.172Z,6.10
2018-04-26T22:28:41.362Z,6.10
2018-04-26T22:31:10.569Z,6.20
2018-04-26T22:33:39.749Z,6.20
2018-04-26T22:36:09.815Z,6.20
2018-04-26T22:38:39.160Z,6.20
2018-04-26T22:41:08.348Z,6.10
2018-04-26T22:43:37.542Z,6.10
2018-04-26T22:46:07.512Z,5.90
2018-04-26T22:48:36.664Z,5.90
2018-04-26T22:51:05.870Z,5.80
2018-04-26T22:53:35.099Z,5.80
2018-04-26T22:56:05.098Z,5.80
2018-04-26T22:58:34.264Z,5.70
2018-04-26T23:01:03.457Z,5.70
2018-04-26T23:03:32.674Z,5.60
2018-04-26T23:06:01.859Z,5.60
2018-04-26T23:08:31.100Z,5.50
2018-04-26T23:11:00.287Z,5.50
2018-04-26T23:13:30.460Z,5.50
2018-04-26T23:15:59.648Z,5.40
2018-04-26T23:18:29.604Z,5.40
2018-04-26T23:20:58.791Z,5.30
2018-04-26T23:23:28.005Z,5.40
2018-04-26T23:25:57.253Z,5.30
2018-04-26T23:28:26.477Z,5.30
2018-04-26T23:30:55.711Z,5.30
2018-04-26T23:33:24.904Z,5.30
2018-04-26T23:35:54.121Z,5.30
2018-04-26T23:38:23.315Z,5.20
2018-04-26T23:40:52.525Z,5.20
2018-04-26T23:43:21.697Z,5.20
2018-04-26T23:45:50.965Z,5.30
2018-04-26T23:48:20.119Z,5.20
2018-04-26T23:50:50.069Z,5.20
2018-04-26T23:53:19.378Z,5.20
2018-04-26T23:55:48.701Z,5.20
2018-04-26T23:58:17.993Z,5.20
